Time;durP1;ratioP1;P1;durP2;ratioP2;P2;SDS_P1;SDS_P2;PMS_P1;PMS_P2;Temp;Humidity;BMP_temperature;BMP_pressure;BME280_temperature;BME280_humidity;BME280_pressure;Samples;Min_cycle;Max_cycle;Signal;HPM_P1;HPM_P2
2021/09/24 00:00:52;;;;;;;10.40;3.20;;;15.20;90.70;;;;;;5028541;28;20059;-66
2021/09/24 00:03:18;;;;;;;16.48;3.97;;;15.20;90.60;;;;;;5028525;28;20559;-66
2021/09/24 00:05:43;;;;;;;19.85;4.55;;;15.20;90.60;;;;;;5027105;28;20034;-66
2021/09/24 00:08:09;;;;;;;16.52;5.25;;;15.10;90.60;;;;;;5031262;28;20382;-66
2021/09/24 00:10:35;;;;;;;17.42;4.30;;;15.10;90.60;;;;;;5032072;28;20030;-65
2021/09/24 00:13:00;;;;;;;15.52;4.68;;;15.10;90.60;;;;;;5031988;28;20029;-65
2021/09/24 00:15:26;;;;;;;16.92;3.25;;;15.10;90.70;;;;;;5031078;28;20401;-65
2021/09/24 00:17:51;;;;;;;12.18;3.92;;;15.10;90.80;;;;;;5014938;28;20041;-65
2021/09/24 00:20:17;;;;;;;15.25;3.90;;;15.10;90.80;;;;;;5021187;28;20029;-65
2021/09/24 00:22:42;;;;;;;13.27;4.22;;;15.10;90.90;;;;;;5031542;28;20026;-65
2021/09/24 00:25:08;;;;;;;15.68;3.55;;;15.10;91.00;;;;;;5019069;28;20075;-65
2021/09/24 00:27:34;;;;;;;12.75;2.95;;;15.10;91.20;;;;;;5030569;28;20100;-65
2021/09/24 00:29:59;;;;;;;17.85;3.47;;;15.10;91.30;;;;;;5031883;28;20091;-66
2021/09/24 00:32:25;;;;;;;22.63;5.30;;;15.10;91.30;;;;;;5031698;28;20386;-65
2021/09/24 00:34:51;;;;;;;12.55;4.03;;;15.10;91.30;;;;;;5031668;28;20485;-65
2021/09/24 00:37:17;;;;;;;15.68;3.40;;;15.10;91.40;;;;;;5028109;28;20037;-65
2021/09/24 00:39:42;;;;;;;17.67;4.72;;;15.10;91.50;;;;;;5030438;28;20029;-65
2021/09/24 00:42:08;;;;;;;16.70;3.90;;;15.00;91.50;;;;;;5031446;28;20021;-65
2021/09/24 00:44:47;;;;;;;15.73;4.25;;;15.00;91.60;;;;;;5031303;28;20052;-65
2021/09/24 00:47:14;;;;;;;15.57;4.45;;;15.00;91.60;;;;;;5021843;28;20021;-66
2021/09/24 00:49:40;;;;;;;18.98;4.30;;;15.00;91.70;;;;;;5031244;28;20029;-66
2021/09/24 00:52:06;;;;;;;14.32;3.78;;;15.00;91.70;;;;;;5020987;28;20338;-66
2021/09/24 00:54:32;;;;;;;15.45;3.72;;;14.90;91.80;;;;;;5028135;28;20786;-67
2021/09/24 00:56:59;;;;;;;12.98;4.28;;;14.90;91.70;;;;;;5030082;28;20117;-66
2021/09/24 00:59:26;;;;;;;17.92;4.05;;;14.90;92.00;;;;;;5032621;28;20029;-67
2021/09/24 01:01:52;;;;;;;20.20;4.35;;;14.90;91.90;;;;;;5028355;28;20620;-68
2021/09/24 01:04:18;;;;;;;11.68;3.72;;;14.90;91.90;;;;;;5019479;28;20091;-67
2021/09/24 01:06:43;;;;;;;21.02;5.43;;;14.90;91.80;;;;;;5024075;28;20506;-67
2021/09/24 01:09:09;;;;;;;19.10;4.57;;;14.90;91.80;;;;;;5014024;28;20076;-67
2021/09/24 01:11:36;;;;;;;12.35;3.47;;;14.90;91.90;;;;;;5030041;28;20462;-66
2021/09/24 01:14:03;;;;;;;13.20;4.40;;;14.90;91.90;;;;;;5032034;28;20033;-67
2021/09/24 01:16:29;;;;;;;19.55;3.55;;;14.80;91.90;;;;;;5028951;28;20501;-66
2021/09/24 01:18:54;;;;;;;19.05;4.03;;;14.90;92.00;;;;;;5030225;28;20060;-66
2021/09/24 01:21:20;;;;;;;14.30;4.15;;;14.90;92.00;;;;;;5027443;28;20386;-66
2021/09/24 01:23:45;;;;;;;17.58;3.80;;;14.90;92.00;;;;;;5018546;28;20081;-66
2021/09/24 01:26:11;;;;;;;17.90;3.55;;;14.80;92.00;;;;;;5020443;28;20030;-66
2021/09/24 01:28:37;;;;;;;22.35;5.05;;;14.90;92.00;;;;;;5021612;28;20044;-67
2021/09/24 01:31:02;;;;;;;17.10;4.22;;;14.90;92.00;;;;;;5028904;28;20120;-67
2021/09/24 01:33:28;;;;;;;16.60;3.63;;;14.80;92.00;;;;;;5029957;28;20044;-67
2021/09/24 01:35:54;;;;;;;15.48;4.63;;;14.90;92.10;;;;;;5030679;28;20034;-67
2021/09/24 01:38:19;;;;;;;25.10;4.53;;;14.90;92.00;;;;;;5028312;28;20029;-67
2021/09/24 01:40:45;;;;;;;17.48;4.63;;;14.90;92.00;;;;;;5031715;28;20040;-67
2021/09/24 01:43:10;;;;;;;22.60;4.78;;;14.90;92.00;;;;;;5028406;28;20482;-67
2021/09/24 01:45:36;;;;;;;14.25;3.20;;;15.00;92.10;;;;;;5030251;28;20104;-66
2021/09/24 01:48:03;;;;;;;14.63;3.90;;;15.00;92.10;;;;;;5028144;28;20029;-67
2021/09/24 01:50:28;;;;;;;15.45;3.70;;;15.00;92.00;;;;;;5030135;28;20034;-66
2021/09/24 01:52:54;;;;;;;16.55;3.45;;;15.10;92.00;;;;;;5022392;28;20035;-66
2021/09/24 01:55:19;;;;;;;14.90;3.47;;;15.10;92.00;;;;;;5031542;28;20029;-66
2021/09/24 01:57:45;;;;;;;21.75;3.75;;;15.10;92.00;;;;;;5029045;28;20037;-67
2021/09/24 02:00:11;;;;;;;11.52;3.72;;;15.10;92.00;;;;;;5031482;28;20108;-66
2021/09/24 02:02:37;;;;;;;15.00;4.38;;;15.10;91.90;;;;;;5022114;28;20033;-66
2021/09/24 02:05:04;;;;;;;20.50;4.13;;;15.20;92.00;;;;;;5025021;28;20029;-67
2021/09/24 02:07:30;;;;;;;19.88;3.50;;;15.10;92.00;;;;;;5029885;28;20041;-67
2021/09/24 02:09:55;;;;;;;12.13;4.13;;;15.20;92.00;;;;;;5028632;28;20250;-67
2021/09/24 02:12:21;;;;;;;19.38;4.68;;;15.20;91.90;;;;;;5011597;28;20026;-67
2021/09/24 02:14:46;;;;;;;19.58;4.05;;;15.20;92.00;;;;;;5029557;28;20037;-67
2021/09/24 02:17:12;;;;;;;13.57;3.30;;;15.20;92.00;;;;;;5031337;28;20494;-67
2021/09/24 02:19:37;;;;;;;14.70;3.47;;;15.20;92.00;;;;;;5028127;28;20057;-67
2021/09/24 02:22:03;;;;;;;12.50;3.13;;;15.20;92.00;;;;;;5030431;28;20026;-67
2021/09/24 02:24:29;;;;;;;15.07;3.88;;;15.20;92.00;;;;;;5030197;28;20052;-66
2021/09/24 02:26:56;;;;;;;21.98;4.03;;;15.20;92.00;;;;;;5028131;28;20433;-67
2021/09/24 02:29:22;;;;;;;12.75;3.35;;;15.20;92.10;;;;;;5027287;28;20048;-67
2021/09/24 02:31:48;;;;;;;16.25;4.18;;;15.20;92.10;;;;;;5013292;28;20034;-67
2021/09/24 02:34:14;;;;;;;17.15;3.60;;;15.20;92.10;;;;;;5024917;28;20079;-67
2021/09/24 02:36:39;;;;;;;14.38;3.20;;;15.20;92.10;;;;;;5014257;28;20026;-67
2021/09/24 02:39:07;;;;;;;18.95;4.88;;;15.20;92.10;;;;;;5024339;28;20047;-67
2021/09/24 02:41:32;;;;;;;12.35;3.63;;;15.20;92.10;;;;;;5030164;28;20478;-67
2021/09/24 02:43:58;;;;;;;14.75;4.20;;;15.20;92.20;;;;;;5029887;28;20076;-66
2021/09/24 02:46:23;;;;;;;17.25;4.88;;;15.20;92.20;;;;;;5030066;28;20087;-67
2021/09/24 02:48:49;;;;;;;21.00;4.30;;;15.20;92.20;;;;;;5028621;28;20025;-67
2021/09/24 02:51:14;;;;;;;16.15;3.67;;;15.20;92.30;;;;;;5027913;28;20108;-67
2021/09/24 02:53:40;;;;;;;19.65;4.00;;;15.20;92.30;;;;;;5030700;28;20042;-67
2021/09/24 02:56:05;;;;;;;23.00;4.43;;;15.20;92.30;;;;;;5021220;28;20029;-67
2021/09/24 02:58:31;;;;;;;16.48;3.65;;;15.20;92.30;;;;;;5021855;28;20354;-67
2021/09/24 03:00:56;;;;;;;17.08;4.10;;;15.20;92.30;;;;;;5012523;28;20421;-66
2021/09/24 03:03:22;;;;;;;15.68;3.45;;;15.20;92.40;;;;;;5028169;28;20030;-66
2021/09/24 03:05:48;;;;;;;19.90;4.13;;;15.20;92.40;;;;;;5018166;28;20034;-66
2021/09/24 03:08:13;;;;;;;14.77;3.25;;;15.20;92.30;;;;;;5030609;28;20034;-66
2021/09/24 03:10:38;;;;;;;13.95;3.63;;;15.30;92.40;;;;;;5029810;28;20513;-66
2021/09/24 03:13:04;;;;;;;17.65;4.00;;;15.20;92.40;;;;;;5028062;28;20040;-67
2021/09/24 03:15:29;;;;;;;15.75;3.50;;;15.30;92.40;;;;;;5022954;28;20026;-66
2021/09/24 03:17:55;;;;;;;11.88;3.50;;;15.20;92.40;;;;;;5027849;28;20029;-67
2021/09/24 03:20:21;;;;;;;15.50;4.38;;;15.20;92.40;;;;;;5029521;28;20034;-67
2021/09/24 03:22:46;;;;;;;13.77;2.95;;;15.20;92.50;;;;;;5025961;28;20554;-67
2021/09/24 03:25:12;;;;;;;16.83;4.05;;;15.20;92.50;;;;;;5033490;28;20030;-67
2021/09/24 03:27:38;;;;;;;19.60;3.95;;;15.20;92.50;;;;;;5027385;28;20509;-66
2021/09/24 03:30:06;;;;;;;14.43;3.15;;;15.20;92.40;;;;;;5021445;28;20041;-66
2021/09/24 03:32:33;;;;;;;16.52;4.40;;;15.20;92.40;;;;;;5035183;28;20036;-67
2021/09/24 03:34:59;;;;;;;18.42;4.00;;;15.20;92.40;;;;;;5034238;28;20659;-67
2021/09/24 03:37:25;;;;;;;15.13;3.60;;;15.10;92.50;;;;;;5033947;28;20033;-67
2021/09/24 03:39:51;;;;;;;19.67;4.55;;;15.20;92.50;;;;;;5031953;28;20127;-66
2021/09/24 03:42:16;;;;;;;23.83;3.58;;;15.20;92.60;;;;;;5032516;28;20084;-66
2021/09/24 03:44:42;;;;;;;19.50;4.43;;;15.30;92.60;;;;;;5032399;28;20029;-67
2021/09/24 03:47:08;;;;;;;20.27;3.35;;;15.20;92.60;;;;;;5032817;28;20022;-67
2021/09/24 03:49:33;;;;;;;25.23;4.43;;;15.20;92.60;;;;;;5032950;28;20034;-66
2021/09/24 03:52:00;;;;;;;19.42;3.72;;;15.20;92.60;;;;;;5032408;28;20027;-66
2021/09/24 03:54:26;;;;;;;18.65;3.38;;;15.20;92.60;;;;;;5020421;28;20582;-66
2021/09/24 03:56:51;;;;;;;15.45;3.83;;;15.20;92.60;;;;;;5022409;28;20112;-67
2021/09/24 03:59:17;;;;;;;14.07;3.72;;;15.20;92.60;;;;;;5034025;28;20036;-67
2021/09/24 04:01:42;;;;;;;18.10;3.42;;;15.20;92.60;;;;;;5031078;28;20021;-67
2021/09/24 04:04:08;;;;;;;14.70;4.25;;;15.20;92.70;;;;;;5021745;28;20117;-67
2021/09/24 04:06:33;;;;;;;19.55;3.67;;;15.20;92.70;;;;;;5014698;28;20038;-67
2021/09/24 04:08:59;;;;;;;15.20;3.40;;;15.20;92.90;;;;;;5033414;28;20101;-67
2021/09/24 04:11:24;;;;;;;17.73;4.50;;;15.10;92.70;;;;;;5021274;28;20108;-67
2021/09/24 04:13:50;;;;;;;14.63;3.42;;;15.20;92.80;;;;;;5031681;28;20021;-67
2021/09/24 04:16:15;;;;;;;12.88;3.85;;;15.10;92.70;;;;;;5020234;28;20034;-67
2021/09/24 04:18:41;;;;;;;21.15;4.75;;;15.10;92.70;;;;;;5033114;28;20017;-67
2021/09/24 04:21:07;;;;;;;17.35;3.65;;;15.10;92.80;;;;;;5031380;28;20029;-67
2021/09/24 04:23:33;;;;;;;18.98;4.10;;;15.10;92.80;;;;;;5030592;28;20049;-67
2021/09/24 04:25:58;;;;;;;16.77;3.60;;;15.10;92.90;;;;;;5022363;28;20022;-67
2021/09/24 04:28:24;;;;;;;14.40;3.47;;;15.10;92.90;;;;;;5012255;28;20030;-67
2021/09/24 04:30:50;;;;;;;15.35;3.40;;;15.10;93.00;;;;;;5023867;28;20539;-67
2021/09/24 04:33:16;;;;;;;12.90;3.10;;;15.00;93.00;;;;;;5032104;28;20025;-66
2021/09/24 04:35:41;;;;;;;16.65;3.90;;;15.00;93.00;;;;;;5023452;28;20038;-66
2021/09/24 04:38:07;;;;;;;18.90;4.32;;;15.00;93.00;;;;;;5012991;28;20014;-67
2021/09/24 04:40:32;;;;;;;17.17;4.35;;;15.00;93.10;;;;;;5020169;28;20097;-66
2021/09/24 04:42:58;;;;;;;17.10;4.13;;;15.00;93.10;;;;;;5013292;28;20022;-66
2021/09/24 04:45:23;;;;;;;16.75;3.63;;;15.00;93.10;;;;;;5028683;28;20021;-67
2021/09/24 04:47:48;;;;;;;12.63;3.05;;;15.00;93.20;;;;;;5032234;28;20665;-66
2021/09/24 04:50:14;;;;;;;16.02;3.70;;;15.00;93.20;;;;;;5025742;28;20558;-66
2021/09/24 04:52:40;;;;;;;12.93;3.95;;;15.00;93.20;;;;;;5012750;28;20092;-67
2021/09/24 04:55:07;;;;;;;19.98;4.32;;;15.00;93.30;;;;;;5021847;28;20045;-66
2021/09/24 04:57:33;;;;;;;26.13;4.80;;;15.00;93.30;;;;;;5021598;28;20022;-67
2021/09/24 04:59:59;;;;;;;18.83;4.28;;;15.00;93.30;;;;;;5022447;28;20398;-66
2021/09/24 05:02:24;;;;;;;16.85;3.47;;;15.00;93.20;;;;;;5024191;28;20030;-67
2021/09/24 05:04:50;;;;;;;24.25;4.63;;;15.00;93.30;;;;;;5024631;28;20045;-67
2021/09/24 05:07:15;;;;;;;18.60;4.90;;;15.00;93.30;;;;;;5022902;28;20018;-66
2021/09/24 05:09:40;;;;;;;17.35;3.92;;;15.00;93.30;;;;;;5029150;28;20025;-66
2021/09/24 05:12:06;;;;;;;17.45;3.63;;;15.00;93.30;;;;;;5031494;28;20021;-66
2021/09/24 05:14:32;;;;;;;16.23;4.07;;;15.00;93.30;;;;;;5030533;28;20068;-67
2021/09/24 05:16:57;;;;;;;18.30;4.05;;;15.00;93.40;;;;;;5022813;28;20114;-67
2021/09/24 05:19:23;;;;;;;18.20;4.57;;;15.00;93.30;;;;;;5031424;28;20021;-66
2021/09/24 05:21:48;;;;;;;16.92;3.53;;;15.00;93.30;;;;;;5029040;28;20190;-66
2021/09/24 05:24:14;;;;;;;16.33;3.83;;;15.00;93.30;;;;;;5029993;28;20036;-66
2021/09/24 05:26:40;;;;;;;20.77;4.05;;;15.00;93.40;;;;;;5028398;28;20022;-66
2021/09/24 05:29:06;;;;;;;18.02;3.72;;;15.00;93.40;;;;;;5031082;28;20109;-66
2021/09/24 05:31:32;;;;;;;14.73;3.35;;;15.00;93.50;;;;;;5030341;28;20383;-66
2021/09/24 05:33:58;;;;;;;21.77;4.57;;;15.00;93.50;;;;;;5025939;28;20034;-66
2021/09/24 05:36:23;;;;;;;18.08;4.63;;;14.90;93.40;;;;;;5016804;28;20038;-66
2021/09/24 05:38:49;;;;;;;15.80;4.00;;;14.90;93.40;;;;;;5014962;28;20057;-66
2021/09/24 05:41:14;;;;;;;13.93;3.40;;;14.90;93.40;;;;;;5016404;28;20497;-67
2021/09/24 05:43:40;;;;;;;15.73;4.30;;;15.00;93.50;;;;;;5014411;28;20032;-66
2021/09/24 05:46:06;;;;;;;20.83;4.60;;;15.00;93.50;;;;;;5029908;28;20075;-66
2021/09/24 05:48:32;;;;;;;22.13;3.67;;;14.90;93.40;;;;;;5030927;28;20041;-66
2021/09/24 05:50:58;;;;;;;17.63;3.13;;;15.00;93.50;;;;;;5028480;28;20037;-66
2021/09/24 05:53:24;;;;;;;15.75;4.22;;;14.90;93.50;;;;;;5030715;28;20077;-66
2021/09/24 05:55:50;;;;;;;23.88;5.55;;;15.00;93.50;;;;;;5029138;28;20068;-66
2021/09/24 05:58:16;;;;;;;15.48;3.40;;;15.00;93.50;;;;;;5030087;28;20022;-67
2021/09/24 06:00:41;;;;;;;16.80;4.18;;;15.00;93.50;;;;;;5025515;28;20036;-69
2021/09/24 06:03:07;;;;;;;15.27;3.72;;;15.00;93.60;;;;;;5028036;28;20018;-66
2021/09/24 06:05:33;;;;;;;20.83;3.90;;;15.00;93.70;;;;;;5014611;28;20018;-66
2021/09/24 06:07:59;;;;;;;15.93;3.63;;;15.00;93.80;;;;;;5030047;28;20080;-65
2021/09/24 06:10:25;;;;;;;16.35;3.63;;;15.10;93.70;;;;;;5030563;28;20017;-65
2021/09/24 06:12:50;;;;;;;13.40;3.55;;;15.10;93.70;;;;;;5013772;28;20029;-65
2021/09/24 06:15:21;;;;;;;13.00;4.15;;;15.10;93.90;;;;;;5018539;28;20042;-64
2021/09/24 06:17:48;;;;;;;26.20;6.05;;;15.20;93.80;;;;;;5012063;28;20069;-65
2021/09/24 06:20:14;;;;;;;19.10;4.38;;;15.20;93.80;;;;;;5026367;28;20121;-64
2021/09/24 06:22:41;;;;;;;11.45;3.90;;;15.30;93.90;;;;;;5028966;28;20025;-65
2021/09/24 06:25:08;;;;;;;14.65;3.83;;;15.30;93.70;;;;;;5025101;28;20060;-66
2021/09/24 06:27:33;;;;;;;14.90;3.58;;;15.30;93.70;;;;;;5022277;28;20022;-65
2021/09/24 06:29:59;;;;;;;16.00;3.90;;;15.30;93.70;;;;;;5021413;28;20045;-66
2021/09/24 06:32:24;;;;;;;14.30;3.38;;;15.40;93.60;;;;;;5021086;28;20043;-65
2021/09/24 06:34:51;;;;;;;14.25;3.35;;;15.40;93.50;;;;;;5026562;28;20033;-65
2021/09/24 06:37:17;;;;;;;21.13;4.78;;;15.40;93.60;;;;;;5024087;28;20131;-65
2021/09/24 06:39:44;;;;;;;18.55;3.70;;;15.50;93.50;;;;;;5015876;28;20026;-66
2021/09/24 06:42:10;;;;;;;22.50;4.82;;;15.50;93.40;;;;;;5026312;28;20045;-66
2021/09/24 06:44:36;;;;;;;14.80;3.75;;;15.50;93.40;;;;;;5020775;28;20036;-65
2021/09/24 06:47:02;;;;;;;18.10;3.50;;;15.50;93.30;;;;;;5029850;28;20029;-65
2021/09/24 06:49:28;;;;;;;17.90;4.20;;;15.50;93.30;;;;;;5019880;28;20466;-66
2021/09/24 06:51:54;;;;;;;14.70;3.75;;;15.50;93.40;;;;;;5017617;28;20532;-68
2021/09/24 06:54:20;;;;;;;18.15;4.05;;;15.50;93.30;;;;;;5028591;28;20474;-66
2021/09/24 06:56:46;;;;;;;13.27;3.55;;;15.50;93.20;;;;;;5030846;28;20469;-66
2021/09/24 06:59:11;;;;;;;16.90;3.67;;;15.40;93.30;;;;;;5027265;28;20112;-66
2021/09/24 07:01:37;;;;;;;15.70;3.80;;;15.40;93.40;;;;;;5022691;28;20117;-66
2021/09/24 07:04:03;;;;;;;16.15;3.42;;;15.40;93.40;;;;;;5031296;28;20028;-66
2021/09/24 07:06:28;;;;;;;17.15;5.22;;;15.40;93.50;;;;;;5027758;28;20026;-66
2021/09/24 07:08:54;;;;;;;16.98;3.28;;;15.40;93.50;;;;;;5025354;28;20033;-66
2021/09/24 07:11:19;;;;;;;18.98;4.18;;;15.40;93.70;;;;;;5029419;28;20034;-66
2021/09/24 07:13:45;;;;;;;16.67;3.78;;;15.30;93.50;;;;;;5028973;28;20113;-67
2021/09/24 07:16:10;;;;;;;19.67;4.13;;;15.40;93.60;;;;;;5026062;28;20117;-73
2021/09/24 07:18:36;;;;;;;16.65;3.50;;;15.30;93.60;;;;;;5022960;28;20052;-73
2021/09/24 07:21:01;;;;;;;17.55;3.90;;;15.40;93.70;;;;;;5028936;28;20043;-71
2021/09/24 07:23:27;;;;;;;14.43;3.88;;;15.50;93.80;;;;;;5023000;28;20048;-72
2021/09/24 07:25:54;;;;;;;19.27;3.90;;;15.60;93.70;;;;;;5027552;28;20429;-72
2021/09/24 07:28:19;;;;;;;15.40;3.78;;;15.60;93.70;;;;;;5032279;28;20052;-72
2021/09/24 07:30:45;;;;;;;11.90;4.13;;;15.70;93.70;;;;;;5025018;28;20029;-73
2021/09/24 07:33:11;;;;;;;18.58;3.63;;;15.80;93.70;;;;;;5025456;28;20029;-73
2021/09/24 07:35:36;;;;;;;14.45;3.58;;;15.90;93.60;;;;;;5022032;28;20030;-75
2021/09/24 07:38:02;;;;;;;14.65;3.67;;;15.90;93.60;;;;;;5017194;28;20434;-74
2021/09/24 07:40:28;;;;;;;17.05;3.38;;;15.90;93.50;;;;;;5026228;28;20036;-74
2021/09/24 07:42:54;;;;;;;12.13;4.15;;;16.10;93.40;;;;;;5030077;28;20071;-73
2021/09/24 07:45:21;;;;;;;13.63;4.00;;;16.20;93.20;;;;;;5026067;28;20084;-74
2021/09/24 07:47:47;;;;;;;12.63;3.92;;;16.20;93.10;;;;;;5023089;28;20351;-74
2021/09/24 07:50:13;;;;;;;14.75;3.22;;;16.30;93.00;;;;;;5030491;28;20173;-73
2021/09/24 07:52:38;;;;;;;14.50;3.88;;;16.30;93.00;;;;;;5031929;28;20104;-73
2021/09/24 07:55:05;;;;;;;16.00;3.75;;;16.40;92.90;;;;;;5026976;28;20196;-72
2021/09/24 07:57:31;;;;;;;20.67;5.22;;;16.50;92.70;;;;;;5025771;28;20147;-69
2021/09/24 07:59:56;;;;;;;14.23;3.38;;;16.50;92.60;;;;;;5023320;28;20113;-70
2021/09/24 08:02:22;;;;;;;17.15;3.83;;;16.50;92.50;;;;;;5023726;28;20021;-68
2021/09/24 08:04:48;;;;;;;17.60;4.30;;;16.60;92.40;;;;;;5024486;28;20059;-69
2021/09/24 08:07:13;;;;;;;16.33;5.22;;;16.60;92.20;;;;;;5013865;28;20068;-72
2021/09/24 08:09:39;;;;;;;25.27;5.75;;;16.70;92.10;;;;;;5030667;28;20037;-76
2021/09/24 08:12:05;;;;;;;15.75;3.97;;;16.70;92.20;;;;;;5033356;28;20033;-76
2021/09/24 08:14:31;;;;;;;12.63;3.50;;;16.80;92.00;;;;;;5021342;28;20148;-73
2021/09/24 08:16:56;;;;;;;15.27;3.60;;;16.80;92.00;;;;;;5032509;28;20527;-72
2021/09/24 08:19:22;;;;;;;11.10;3.90;;;16.80;92.00;;;;;;5029721;28;20100;-72
2021/09/24 08:21:48;;;;;;;34.88;12.77;;;16.90;91.80;;;;;;5031591;28;20112;-69
2021/09/24 08:24:13;;;;;;;63.80;28.65;;;16.90;91.70;;;;;;5031341;28;20116;-69
2021/09/24 08:26:39;;;;;;;46.20;20.27;;;17.00;91.80;;;;;;5031114;28;20029;-69
2021/09/24 08:29:04;;;;;;;57.70;25.38;;;17.10;91.50;;;;;;5032352;28;20045;-69
2021/09/24 08:31:30;;;;;;;31.52;13.13;;;17.30;91.60;;;;;;5031527;28;20691;-69
2021/09/24 08:33:58;;;;;;;33.20;13.07;;;17.40;91.00;;;;;;5023009;28;20041;-71
2021/09/24 08:36:24;;;;;;;23.95;7.40;;;17.50;90.50;;;;;;5030121;28;20072;-70
2021/09/24 08:38:50;;;;;;;25.35;7.93;;;17.60;90.40;;;;;;5029373;28;20089;-71
2021/09/24 08:41:16;;;;;;;17.50;5.90;;;17.60;90.40;;;;;;5027140;28;20117;-71
2021/09/24 08:43:42;;;;;;;17.58;6.55;;;17.70;90.10;;;;;;5025541;28;20097;-73
2021/09/24 08:46:07;;;;;;;18.17;5.25;;;17.70;90.20;;;;;;5029584;28;20441;-73
2021/09/24 08:48:34;;;;;;;20.85;5.60;;;17.70;90.10;;;;;;5025765;28;20033;-73
2021/09/24 08:51:00;;;;;;;18.05;5.75;;;17.80;89.90;;;;;;5017140;28;20118;-74
2021/09/24 08:53:26;;;;;;;18.58;5.38;;;17.80;89.50;;;;;;5019032;28;20498;-75
2021/09/24 08:55:52;;;;;;;22.17;5.43;;;17.90;88.90;;;;;;5022850;28;20092;-72
2021/09/24 08:58:19;;;;;;;10.95;4.53;;;18.00;89.20;;;;;;5029933;28;20056;-78
2021/09/24 09:00:45;;;;;;;12.68;4.65;;;18.10;88.40;;;;;;5029267;28;20464;-74
2021/09/24 09:03:18;;;;;;;15.05;3.60;;;18.20;88.10;;;;;;5029702;28;20025;-73
2021/09/24 09:05:46;;;;;;;12.45;4.20;;;18.20;87.50;;;;;;5027565;28;20125;-74
2021/09/24 09:08:30;;;;;;;13.52;4.47;;;18.30;87.40;;;;;;5019931;28;20041;-74
2021/09/24 09:11:01;;;;;;;11.38;4.28;;;18.40;87.00;;;;;;5022135;28;20033;-75
2021/09/24 09:13:29;;;;;;;10.98;3.38;;;18.50;86.70;;;;;;5032278;28;20116;-75
2021/09/24 09:15:59;;;;;;;13.75;3.53;;;18.50;86.00;;;;;;5031321;28;20044;-75
2021/09/24 09:18:26;;;;;;;14.30;3.95;;;18.50;85.70;;;;;;5031893;28;20387;-75
2021/09/24 09:20:52;;;;;;;12.73;4.40;;;18.60;85.50;;;;;;5027685;28;20022;-75
2021/09/24 09:23:21;;;;;;;14.02;4.38;;;18.60;85.50;;;;;;5023289;28;20060;-74
2021/09/24 09:25:49;;;;;;;16.58;5.60;;;18.70;85.50;;;;;;5031873;28;20501;-75
2021/09/24 09:28:31;;;;;;;16.08;4.25;;;18.70;85.10;;;;;;5026280;28;20033;-80
2021/09/24 09:30:57;;;;;;;13.93;4.00;;;18.80;85.00;;;;;;5031859;28;20080;-75
2021/09/24 09:33:24;;;;;;;15.95;4.35;;;18.90;84.60;;;;;;5031987;28;20026;-75
2021/09/24 09:36:00;;;;;;;15.20;3.70;;;18.90;84.30;;;;;;5031700;28;20038;-75
2021/09/24 09:38:27;;;;;;;12.57;3.92;;;18.90;84.80;;;;;;5031454;28;20030;-75
2021/09/24 09:40:58;;;;;;;15.07;4.95;;;19.00;84.50;;;;;;5037617;28;20393;-76
2021/09/24 09:43:32;;;;;;;12.75;3.63;;;19.00;84.60;;;;;;5017643;28;20026;-75
2021/09/24 09:46:04;;;;;;;13.20;3.60;;;19.10;84.10;;;;;;5014430;28;20379;-75
2021/09/24 09:48:30;;;;;;;12.63;3.45;;;19.20;83.90;;;;;;5030130;28;20032;-75
2021/09/24 09:50:56;;;;;;;20.70;3.78;;;19.20;84.00;;;;;;5030326;28;20398;-75
2021/09/24 09:53:22;;;;;;;18.63;4.75;;;19.40;84.00;;;;;;5031466;28;20043;-73
2021/09/24 09:55:51;;;;;;;18.13;4.07;;;19.50;82.80;;;;;;5030185;28;20041;-76
2021/09/24 09:58:18;;;;;;;14.85;3.75;;;19.60;83.00;;;;;;5030661;28;20112;-75
2021/09/24 10:01:05;;;;;;;16.27;4.30;;;19.60;83.00;;;;;;5030457;28;20034;-75
2021/09/24 10:03:33;;;;;;;11.45;3.40;;;19.70;82.60;;;;;;5024729;28;20024;-74
2021/09/24 10:05:59;;;;;;;13.10;3.20;;;19.80;82.00;;;;;;5039637;28;20462;-76
2021/09/24 10:08:28;;;;;;;11.15;3.30;;;19.80;81.80;;;;;;5029886;28;20029;-78
2021/09/24 10:10:55;;;;;;;11.07;3.13;;;19.90;81.80;;;;;;5030231;28;20100;-76
2021/09/24 10:13:21;;;;;;;15.57;4.30;;;20.00;81.80;;;;;;5020701;28;20026;-77
2021/09/24 10:15:48;;;;;;;11.75;3.10;;;20.00;81.50;;;;;;5011411;28;20040;-77
2021/09/24 10:18:13;;;;;;;10.40;3.35;;;20.00;81.10;;;;;;5030446;28;20037;-75
2021/09/24 10:20:39;;;;;;;10.32;3.70;;;20.00;81.30;;;;;;5031188;28;20588;-74
2021/09/24 10:23:07;;;;;;;11.70;3.15;;;20.00;81.10;;;;;;5030515;28;20029;-75
2021/09/24 10:25:34;;;;;;;11.75;3.40;;;20.00;81.00;;;;;;5031428;28;20037;-74
2021/09/24 10:28:05;;;;;;;16.40;5.07;;;20.00;81.30;;;;;;5032420;28;20030;-75
2021/09/24 10:30:32;;;;;;;14.63;3.17;;;20.10;81.20;;;;;;5031012;28;20610;-75
2021/09/24 10:33:07;;;;;;;9.68;3.35;;;20.10;81.20;;;;;;5015120;28;20032;-75
2021/09/24 10:35:51;;;;;;;12.60;3.78;;;20.10;81.60;;;;;;5025654;28;20379;-75
2021/09/24 10:38:23;;;;;;;11.80;3.42;;;20.20;81.90;;;;;;5035122;28;20053;-76
2021/09/24 10:40:53;;;;;;;13.25;3.50;;;20.30;82.80;;;;;;5025142;28;20065;-74
2021/09/24 10:43:18;;;;;;;17.05;4.43;;;20.30;83.40;;;;;;5029196;28;20022;-73
2021/09/24 10:45:44;;;;;;;13.60;3.20;;;20.30;82.70;;;;;;5027414;28;20040;-73
2021/09/24 10:48:19;;;;;;;15.00;3.90;;;20.40;82.60;;;;;;5032753;28;20025;-75
2021/09/24 10:50:50;;;;;;;9.18;2.80;;;20.40;82.40;;;;;;5016533;28;20080;-73
2021/09/24 10:53:46;;;;;;;15.25;3.35;;;20.50;82.20;;;;;;5022246;28;20137;-78
2021/09/24 10:56:12;;;;;;;12.30;3.53;;;20.50;82.60;;;;;;5026078;28;20520;-79
2021/09/24 10:58:43;;;;;;;13.73;3.45;;;20.40;82.60;;;;;;5022486;28;20025;-74
2021/09/24 11:01:28;;;;;;;9.45;2.60;;;20.50;82.20;;;;;;5030960;28;20038;-75
2021/09/24 11:03:56;;;;;;;11.18;3.03;;;20.50;82.10;;;;;;5031807;28;20034;-76
2021/09/24 11:06:38;;;;;;;10.32;3.03;;;20.60;82.40;;;;;;5030550;28;20580;-76
2021/09/24 11:09:06;;;;;;;9.85;4.13;;;20.70;82.70;;;;;;5024578;28;20025;-75
2021/09/24 11:11:35;;;;;;;8.57;3.45;;;20.70;82.40;;;;;;5027128;28;20116;-78
2021/09/24 11:14:27;;;;;;;11.00;3.17;;;20.80;82.10;;;;;;5018771;28;20053;-81
2021/09/24 11:16:54;;;;;;;10.57;2.88;;;20.80;81.90;;;;;;5030918;28;20045;-79
2021/09/24 11:19:30;;;;;;;13.07;3.28;;;20.80;81.70;;;;;;5031347;28;20382;-79
2021/09/24 11:21:59;;;;;;;6.60;2.30;;;20.70;82.20;;;;;;5027338;28;20056;-76
2021/09/24 11:24:27;;;;;;;9.43;2.38;;;20.70;82.30;;;;;;5024910;28;20443;-80
2021/09/24 11:27:01;;;;;;;9.80;2.92;;;20.70;82.30;;;;;;5028394;28;20036;-76
2021/09/24 11:29:30;;;;;;;8.03;2.60;;;20.70;82.50;;;;;;5022147;28;20159;-76
2021/09/24 11:31:55;;;;;;;6.35;2.40;;;20.70;82.70;;;;;;5017501;28;20040;-77
2021/09/24 11:34:33;;;;;;;7.22;2.35;;;20.70;82.80;;;;;;5026370;28;20026;-78
2021/09/24 11:37:15;;;;;;;7.18;2.55;;;20.70;82.90;;;;;;5021897;28;20030;-79
2021/09/24 11:39:41;;;;;;;7.90;3.05;;;20.70;83.00;;;;;;5023810;28;20033;-83
2021/09/24 11:42:10;;;;;;;5.75;2.17;;;20.70;83.20;;;;;;5027142;28;20037;-81
2021/09/24 11:44:47;;;;;;;11.20;3.25;;;20.60;83.20;;;;;;5021720;28;20085;-78
2021/09/24 11:47:21;;;;;;;8.00;2.60;;;20.60;83.40;;;;;;5018581;28;20029;-74
2021/09/24 11:49:54;;;;;;;6.78;3.03;;;20.50;83.60;;;;;;5030112;28;20056;-75
2021/09/24 11:52:22;;;;;;;6.43;2.20;;;20.40;83.70;;;;;;5026511;28;20041;-77
2021/09/24 11:54:48;;;;;;;5.15;2.13;;;20.40;84.30;;;;;;5026706;28;20042;-77
2021/09/24 11:57:17;;;;;;;6.10;1.90;;;20.40;84.90;;;;;;5026150;28;20108;-74
2021/09/24 11:59:44;;;;;;;6.25;1.65;;;20.40;84.70;;;;;;5028261;28;20037;-74
2021/09/24 12:02:20;;;;;;;4.55;1.70;;;20.30;84.90;;;;;;5028992;28;20033;-75
2021/09/24 12:05:00;;;;;;;5.00;1.70;;;20.30;85.20;;;;;;5028762;28;20044;-76
2021/09/24 12:07:26;;;;;;;3.88;1.95;;;20.30;85.20;;;;;;5031267;28;20037;-75
2021/09/24 12:10:00;;;;;;;6.80;2.00;;;20.30;85.30;;;;;;5029967;28;20041;-75
2021/09/24 12:12:27;;;;;;;6.07;1.80;;;20.30;85.50;;;;;;5031857;28;20028;-75
2021/09/24 12:15:04;;;;;;;4.72;1.48;;;20.30;85.50;;;;;;5020817;28;20099;-75
2021/09/24 12:17:31;;;;;;;7.03;1.75;;;20.30;85.50;;;;;;5030841;28;20104;-75
2021/09/24 12:19:58;;;;;;;7.28;2.50;;;20.40;85.50;;;;;;5027672;28;20033;-74
2021/09/24 12:22:24;;;;;;;4.25;1.60;;;20.40;85.50;;;;;;5029900;28;20049;-77
2021/09/24 12:24:49;;;;;;;4.30;1.40;;;20.40;85.40;;;;;;5028439;28;20072;-75
2021/09/24 12:27:23;;;;;;;3.22;1.80;;;20.50;85.30;;;;;;5030167;28;20017;-76
2021/09/24 12:29:50;;;;;;;3.97;1.75;;;20.50;85.30;;;;;;5020805;28;20120;-77
2021/09/24 12:32:28;;;;;;;4.95;1.50;;;20.50;85.20;;;;;;5028166;28;20025;-75
2021/09/24 12:35:02;;;;;;;2.65;1.20;;;20.50;85.30;;;;;;5029762;28;20037;-74
2021/09/24 12:37:36;;;;;;;4.33;1.60;;;20.40;85.30;;;;;;5030176;28;20064;-73